James William — WDH5573 — position and weather

sailwx.info

Track history (hours):
 
Tides and Currents Weather Stations Pressure Air Temp Water Temp Dewpoint Dewpoint Depression Visibility Wind Speed Wind Dir Waves Ship Positions

James William

Owner: Atlas Holdings, LLC, Norfolk, VA. More information available from US FCC via Universal Licensing System and Coast Guard Vessel Documentation Center.

Last reported at 2017-Nov-16 08:09 UTC. Time now 2017-Nov-22 03:47 UTC.
Position N 40°57' W 073°54'.

Length 26 m; draft 3 m.

Type: Tug. MMSI: 367198950.

Date/timePositionNaut miles runAvg speedWind from/ knotsBaromVisibWave heightAir tempDewpointWater temp
2017-Nov-16 08:09N 40°57' W 073°54'2 5.9
2017-Nov-16 07:48N 40°55' W 073°55'2 5.6
2017-Nov-16 07:30N 40°54' W 073°56'3 5.4
2017-Nov-16 07:00N 40°51' W 073°57'2 4.9
2017-Nov-16 06:30N 40°49' W 073°58'2 4.7
2017-Nov-16 06:00N 40°47' W 073°60'2 4.7
2017-Nov-16 05:30N 40°45' W 074°01'3 5.4
2017-Nov-16 05:00N 40°42' W 074°02'2 4.1
2017-Nov-16 04:30N 40°40' W 074°01'1 1.9
2017-Nov-16 04:00N 40°41' W 074°02'2 3.0
2017-Nov-16 03:30N 40°40' W 074°03'0 0.0
2017-Nov-16 03:00N 40°40' W 074°03'4 7.7
2017-Nov-16 02:30N 40°39' W 074°08'2 3.1
2017-Nov-16 01:58N 40°39' W 074°10'1 2.1
2017-Nov-16 01:30N 40°38' W 074°12'0 0.0
2017-Nov-16 01:00N 40°38' W 074°12'0 0.0
2017-Nov-16 00:30N 40°38' W 074°12'0 0.0
2017-Nov-15 23:47N 40°38' W 074°12'0 0.0
2017-Nov-15 23:29N 40°38' W 074°12'0 0.0
2017-Nov-15 22:48N 40°38' W 074°12'0 0.0
2017-Nov-15 22:29N 40°38' W 074°12'0 0.6
2017-Nov-15 22:00N 40°39' W 074°11'2 3.4
2017-Nov-15 21:29N 40°38' W 074°09'0 0.2
2017-Nov-15 21:00N 40°38' W 074°09'0 0.0
2017-Nov-15 20:30N 40°38' W 074°09'0 0.0
2017-Nov-15 20:00N 40°38' W 074°09'0 0.0
2017-Nov-15 19:30N 40°38' W 074°09'0 0.0
2017-Nov-15 19:00N 40°38' W 074°09'0 0.0
2017-Nov-15 18:30N 40°38' W 074°09'2 3.8
2017-Nov-15 18:00N 40°39' W 074°07'4 7.9
2017-Nov-15 17:30N 40°40' W 074°02'1 1.7
2017-Nov-15 17:00N 40°40' W 074°01'0 0.0
2017-Nov-15 16:30N 40°40' W 074°01'0 0.0
2017-Nov-15 16:00N 40°40' W 074°01'0 0.0
2017-Nov-15 15:30N 40°40' W 074°01'0 0.0
2017-Nov-15 15:00N 40°40' W 074°01'0 0.0
2017-Nov-15 14:30N 40°40' W 074°01'0 0.0
2017-Nov-15 14:00N 40°40' W 074°01'0 0.0
2017-Nov-15 13:30N 40°40' W 074°01'0 0.0
2017-Nov-15 13:00N 40°40' W 074°01'0 0.0
2017-Nov-15 12:30N 40°40' W 074°01'0 0.0
2017-Nov-15 12:00N 40°40' W 074°01'0 0.0
2017-Nov-15 11:30N 40°40' W 074°01'0 0.0
2017-Nov-15 11:00N 40°40' W 074°01'0 0.0
2017-Nov-15 10:30N 40°40' W 074°01'0 0.0
2017-Nov-15 10:00N 40°40' W 074°01'0 0.0
2017-Nov-15 09:30N 40°40' W 074°01'0 0.0
2017-Nov-15 09:00N 40°40' W 074°01'0 0.0
2017-Nov-15 08:30N 40°40' W 074°01'0 0.0
2017-Nov-15 08:00N 40°40' W 074°01'0 0.0
2017-Nov-15 07:30N 40°40' W 074°01'0 0.0
2017-Nov-15 07:00N 40°40' W 074°01'0 0.0
2017-Nov-15 06:30N 40°40' W 074°01'0 0.0
2017-Nov-15 06:01N 40°40' W 074°01'0 0.0
2017-Nov-15 05:30N 40°40' W 074°01'0 0.0
2017-Nov-15 05:00N 40°40' W 074°01'0 0.0
2017-Nov-15 04:30N 40°40' W 074°01'0 0.0
2017-Nov-15 04:00N 40°40' W 074°01'0 0.0
2017-Nov-15 03:30N 40°40' W 074°01'0 0.0
2017-Nov-15 03:00N 40°40' W 074°01'0 0.0
2017-Nov-15 02:30N 40°40' W 074°01'0 0.0
2017-Nov-15 02:00N 40°40' W 074°01'0 0.0
2017-Nov-15 01:30N 40°40' W 074°01'0 0.0
2017-Nov-15 01:00N 40°40' W 074°01'0 0.0
2017-Nov-15 00:30N 40°40' W 074°01'0 0.0
2017-Nov-15 00:00N 40°40' W 074°01'0 0.0
2017-Nov-14 23:30N 40°40' W 074°01'0 0.0
2017-Nov-14 23:00N 40°40' W 074°01'0 0.0
2017-Nov-14 22:30N 40°40' W 074°01'0 0.0
2017-Nov-14 22:00N 40°40' W 074°01'0 0.0
2017-Nov-14 21:30N 40°40' W 074°01'0 0.0
2017-Nov-14 21:00N 40°40' W 074°01'0 0.0
2017-Nov-14 20:30N 40°40' W 074°01'2 4.4
2017-Nov-14 20:00N 40°42' W 074°00'3 6.4
2017-Nov-14 19:30N 40°45' W 073°58'3 6.2
2017-Nov-14 19:00N 40°47' W 073°55'4 8.1
2017-Nov-14 18:29N 40°48' W 073°50'4 7.5
2017-Nov-14 18:00N 40°50' W 073°46'1 0.1
2017-Nov-14 01:04N 40°51' W 073°45'1 5.3
2017-Nov-14 00:57N 40°51' W 073°45'3 5.0
2017-Nov-14 00:17N 40°48' W 073°47'1 4.8
2017-Nov-14 00:00N 40°48' W 073°49'3 5.2
2017-Nov-13 23:29N 40°48' W 073°53'2 4.6
2017-Nov-13 23:00N 40°47' W 073°55'3 6.2
2017-Nov-13 22:30N 40°45' W 073°58'3 5.9
2017-Nov-13 22:00N 40°42' W 073°60'11 0.5
2017-Nov-13 01:44N 40°49' W 073°49'0 0.0
2017-Nov-13 01:21N 40°49' W 073°49'0 0.0
2017-Nov-13 00:53N 40°49' W 073°49'0 0.0
2017-Nov-12 23:52N 40°49' W 073°49'0 0.0
2017-Nov-12 23:25N 40°49' W 073°49'0 0.1
2017-Nov-12 22:57N 40°49' W 073°49'0 0.1
2017-Nov-12 22:30N 40°49' W 073°49'0 0.0
2017-Nov-12 22:00N 40°49' W 073°49'0 0.0
2017-Nov-12 21:29N 40°49' W 073°49'0 0.0
2017-Nov-12 20:53N 40°49' W 073°49'0 0.2
2017-Nov-12 20:30N 40°49' W 073°49'1 1.3
2017-Nov-12 20:00N 40°48' W 073°49'3 6.9
2017-Nov-12 19:30N 40°48' W 073°54'4 8.2
2017-Nov-12 19:00N 40°45' W 073°58'3 6.6
2017-Nov-12 18:30N 40°42' W 073°60'3 5.7
2017-Nov-12 18:00N 40°40' W 074°03'1 1.5
2017-Nov-12 17:30N 40°40' W 074°03'0 0.1
2017-Nov-12 17:00N 40°40' W 074°03'2 3.0
2017-Nov-12 16:30N 40°40' W 074°02'1 2.6
2017-Nov-12 16:01N 40°40' W 074°03'0 1.0
2017-Nov-12 15:30N 40°40' W 074°03'0 0.2
2017-Nov-12 15:01N 40°40' W 074°03'2 3.3
2017-Nov-12 14:30N 40°40' W 074°01'0 1.0
2017-Nov-12 14:00N 40°40' W 074°01'0 0.0
2017-Nov-12 13:30N 40°40' W 074°01'0 0.0
2017-Nov-12 13:00N 40°40' W 074°01'0 0.0
2017-Nov-12 12:30N 40°40' W 074°01'0 0.0
2017-Nov-12 12:00N 40°40' W 074°01'0 0.0
2017-Nov-12 11:30N 40°40' W 074°01'0 0.0
2017-Nov-12 11:00N 40°40' W 074°01'0 0.0
2017-Nov-12 10:30N 40°40' W 074°01'0 0.0
2017-Nov-12 10:00N 40°40' W 074°01'0 0.0
2017-Nov-12 09:30N 40°40' W 074°01'0 0.0
2017-Nov-12 09:00N 40°40' W 074°01'0 0.0
2017-Nov-12 08:30N 40°40' W 074°01'0 0.0
2017-Nov-12 08:00N 40°40' W 074°01'0 0.0
2017-Nov-12 07:30N 40°40' W 074°01'0 0.0
2017-Nov-12 07:00N 40°40' W 074°01'0 0.0
2017-Nov-12 06:30N 40°40' W 074°01'0 0.0
2017-Nov-12 06:00N 40°40' W 074°01'0 0.0
2017-Nov-12 05:30N 40°40' W 074°01'0 0.0
2017-Nov-12 05:00N 40°40' W 074°01'0 0.0
2017-Nov-12 04:30N 40°40' W 074°01'0 0.0
2017-Nov-12 04:00N 40°40' W 074°01'0 0.0
2017-Nov-12 03:30N 40°40' W 074°01'0 0.0
2017-Nov-12 03:00N 40°40' W 074°01'0 0.0
2017-Nov-12 02:30N 40°40' W 074°01'0 0.0
2017-Nov-12 02:00N 40°40' W 074°01'0 0.0
2017-Nov-12 01:30N 40°40' W 074°01'0 0.0
2017-Nov-12 01:00N 40°40' W 074°01'0 0.0
2017-Nov-12 00:30N 40°40' W 074°01'0 0.0
2017-Nov-12 00:00N 40°40' W 074°01'0 0.0
2017-Nov-11 23:30N 40°40' W 074°01'0 0.0
2017-Nov-11 23:00N 40°40' W 074°01'0 0.0
2017-Nov-11 22:30N 40°40' W 074°01'0 0.0
2017-Nov-11 22:00N 40°40' W 074°01'0 0.0
2017-Nov-11 21:30N 40°40' W 074°01'0 0.0
2017-Nov-11 21:00N 40°40' W 074°01'0 0.0
2017-Nov-11 20:30N 40°40' W 074°01'0 0.0
2017-Nov-11 20:00N 40°40' W 074°01'0 0.0
2017-Nov-11 19:30N 40°40' W 074°01'0 0.0
2017-Nov-11 19:00N 40°40' W 074°01'0 0.0
2017-Nov-11 18:30N 40°40' W 074°01'0 0.0
2017-Nov-11 18:00N 40°40' W 074°01'0 0.0
2017-Nov-11 17:30N 40°40' W 074°01'0 0.0
2017-Nov-11 17:00N 40°40' W 074°01'0 0.0
2017-Nov-11 16:30N 40°40' W 074°01'0 0.0
2017-Nov-11 16:00N 40°40' W 074°01'0 0.0
2017-Nov-11 15:30N 40°40' W 074°01'0 0.0
2017-Nov-11 15:00N 40°40' W 074°01'0 0.0
2017-Nov-11 14:30N 40°40' W 074°01'1 2.7
2017-Nov-11 14:00N 40°40' W 074°03'4 6.9
2017-Nov-11 13:30N 40°39' W 074°07'4 7.5
2017-Nov-11 13:00N 40°38' W 074°12'0 0.1
2017-Nov-11 12:30N 40°38' W 074°12'0 0.1
2017-Nov-11 12:00N 40°38' W 074°12'0 0.1
2017-Nov-11 11:30N 40°38' W 074°12'0 0.0
2017-Nov-11 11:00N 40°38' W 074°12'0 0.0
2017-Nov-11 10:30N 40°38' W 074°12'0 0.1
2017-Nov-11 10:00N 40°38' W 074°12'0 0.0
2017-Nov-11 09:30N 40°38' W 074°12'0 0.0
2017-Nov-11 09:00N 40°38' W 074°12'0 0.0
2017-Nov-11 08:30N 40°38' W 074°12'0 0.0
2017-Nov-11 08:00N 40°38' W 074°12'0 0.0
2017-Nov-11 07:29N 40°38' W 074°12'0 0.0
2017-Nov-11 07:00N 40°38' W 074°12'0 0.0
2017-Nov-11 06:30N 40°38' W 074°12'0 0.0
2017-Nov-11 06:00N 40°38' W 074°12'0 0.0
2017-Nov-11 05:30N 40°38' W 074°12'0 0.0
2017-Nov-11 05:00N 40°38' W 074°12'0 0.0
2017-Nov-11 04:30N 40°38' W 074°12'0 0.0
2017-Nov-11 04:00N 40°38' W 074°12'0 0.0
2017-Nov-11 03:30N 40°38' W 074°12'0 0.0
2017-Nov-11 03:00N 40°38' W 074°12'0 0.0
2017-Nov-11 02:30N 40°38' W 074°12'0 0.0
2017-Nov-11 02:00N 40°38' W 074°12'0 0.0
2017-Nov-11 01:30N 40°38' W 074°12'0 0.0
2017-Nov-11 01:00N 40°38' W 074°12'0 0.0
2017-Nov-11 00:30N 40°38' W 074°12'0 0.0
2017-Nov-11 00:00N 40°38' W 074°12'0 0.0
2017-Nov-10 23:30N 40°38' W 074°12'0 0.0
2017-Nov-10 23:00N 40°38' W 074°12'0 0.0
2017-Nov-10 22:30N 40°38' W 074°12'0 0.0
2017-Nov-10 22:00N 40°38' W 074°12'0 0.0
2017-Nov-10 21:30N 40°38' W 074°12'0 0.0
2017-Nov-10 21:00N 40°38' W 074°12'0 0.0
2017-Nov-10 20:30N 40°38' W 074°12'0 0.0
2017-Nov-10 20:00N 40°38' W 074°12'0 0.0
2017-Nov-10 19:30N 40°38' W 074°12'0 0.0
2017-Nov-10 18:59N 40°38' W 074°12'0 0.0
2017-Nov-10 18:30N 40°38' W 074°12'0 0.0
2017-Nov-10 17:59N 40°38' W 074°12'0 0.0
2017-Nov-10 17:30N 40°38' W 074°12'0 0.0
2017-Nov-10 16:59N 40°38' W 074°12'0 0.7
2017-Nov-10 16:30N 40°38' W 074°12'3 5.6
2017-Nov-10 16:00N 40°39' W 074°08'4 7.2
2017-Nov-10 15:30N 40°39' W 074°03'2 5.0
2017-Nov-10 15:01N 40°40' W 074°00'1 1.1
2017-Nov-10 14:30N 40°40' W 074°01'0 0.0
2017-Nov-10 14:00N 40°40' W 074°01'0 0.0
2017-Nov-10 13:30N 40°40' W 074°01'0 0.0
2017-Nov-10 13:00N 40°40' W 074°01'0 0.0
2017-Nov-10 12:30N 40°40' W 074°01'0 0.0
2017-Nov-10 12:00N 40°40' W 074°01'0 0.0
2017-Nov-10 11:30N 40°40' W 074°01'0 0.0
2017-Nov-10 11:00N 40°40' W 074°01'0 0.0
2017-Nov-10 10:30N 40°40' W 074°01'0 0.0
2017-Nov-10 10:00N 40°40' W 074°01'0 0.0
2017-Nov-10 09:30N 40°40' W 074°01'0 0.0
2017-Nov-10 09:00N 40°40' W 074°01'0 0.0
2017-Nov-10 08:30N 40°40' W 074°01'0 0.0
2017-Nov-10 08:00N 40°40' W 074°01'0 0.0
2017-Nov-10 07:30N 40°40' W 074°01'0 0.0
2017-Nov-10 07:00N 40°40' W 074°01'0 0.0
2017-Nov-10 06:30N 40°40' W 074°01'0 0.0
2017-Nov-10 06:00N 40°40' W 074°01'0 0.0
2017-Nov-10 05:30N 40°40' W 074°01'1 2.5
2017-Nov-10 05:00N 40°41' W 074°01'1 1.1
2017-Nov-10 04:31N 40°42' W 074°00'3 5.8
2017-Nov-10 04:00N 40°40' W 074°03'0 0.2
2017-Nov-10 03:31N 40°40' W 074°03'2 3.0
2017-Nov-10 03:00N 40°41' W 074°02'1 1.2
2017-Nov-10 02:30N 40°41' W 074°01'1 2.1
2017-Nov-10 02:00N 40°40' W 074°01'0 0.0
2017-Nov-10 01:30N 40°40' W 074°01'0 0.0
2017-Nov-10 01:00N 40°40' W 074°01'0 0.0
2017-Nov-10 00:30N 40°40' W 074°01'0 0.0
2017-Nov-10 00:00N 40°40' W 074°01'0 0.9
2017-Nov-09 23:30N 40°40' W 074°01'0 0.9
2017-Nov-09 23:00N 40°40' W 074°01'0 0.0
2017-Nov-09 22:30N 40°40' W 074°01'0 0.0
2017-Nov-09 22:00N 40°40' W 074°01'0 0.0
2017-Nov-09 21:30N 40°40' W 074°01'0 0.0
2017-Nov-09 21:00N 40°40' W 074°01'0 0.0
2017-Nov-09 20:30N 40°40' W 074°01'0 0.0
2017-Nov-09 20:00N 40°40' W 074°01'0 0.0
2017-Nov-09 19:30N 40°40' W 074°01'0 0.0
2017-Nov-09 19:00N 40°40' W 074°01'0 0.0
2017-Nov-09 18:30N 40°40' W 074°01'0 0.0
2017-Nov-09 18:00N 40°40' W 074°01'0 0.0
2017-Nov-09 17:30N 40°40' W 074°01'0 0.0
2017-Nov-09 17:00N 40°40' W 074°01'0 0.0
2017-Nov-09 16:30N 40°40' W 074°01'0 0.0
2017-Nov-09 16:00N 40°40' W 074°01'0 0.0
2017-Nov-09 15:30N 40°40' W 074°01'0 0.0
2017-Nov-09 15:00N 40°40' W 074°01'0 0.0
2017-Nov-09 14:30N 40°40' W 074°01'0 0.0
2017-Nov-09 14:00N 40°40' W 074°01'0 0.0
2017-Nov-09 13:30N 40°40' W 074°01'0 0.0
2017-Nov-09 13:00N 40°40' W 074°01'0 0.0
2017-Nov-09 12:30N 40°40' W 074°01'0 0.0
2017-Nov-09 12:00N 40°40' W 074°01'0 0.0
2017-Nov-09 11:30N 40°40' W 074°01'0 0.0
2017-Nov-09 11:00N 40°40' W 074°01'0 0.0
2017-Nov-09 10:30N 40°40' W 074°01'0 0.0
2017-Nov-09 10:00N 40°40' W 074°01'0 0.0
2017-Nov-09 09:30N 40°40' W 074°01'0 0.0
2017-Nov-09 09:00N 40°40' W 074°01'0 0.0
2017-Nov-09 08:30N 40°40' W 074°01'0 0.0
2017-Nov-09 08:00N 40°40' W 074°01'0 0.0
2017-Nov-09 07:30N 40°40' W 074°01'0 0.0
2017-Nov-09 07:00N 40°40' W 074°01'0 0.0
2017-Nov-09 06:30N 40°40' W 074°01'0 0.0
2017-Nov-09 06:00N 40°40' W 074°01'0 0.0
2017-Nov-09 05:30N 40°40' W 074°01'0 0.0
2017-Nov-09 05:00N 40°40' W 074°01'0 0.0
2017-Nov-09 04:30N 40°40' W 074°01'0 0.0
2017-Nov-09 04:00N 40°40' W 074°01'0 0.0
2017-Nov-09 03:30N 40°40' W 074°01'0 0.0
2017-Nov-09 03:00N 40°40' W 074°01'0 0.0
2017-Nov-09 02:30N 40°40' W 074°01'0 0.0
2017-Nov-09 02:00N 40°40' W 074°01'0 0.0
2017-Nov-09 01:30N 40°40' W 074°01'0 0.0
2017-Nov-09 01:00N 40°40' W 074°01'0 0.0
2017-Nov-09 00:30N 40°40' W 074°01'0 0.0
2017-Nov-09 00:00N 40°40' W 074°01'0 0.0
2017-Nov-08 23:30N 40°40' W 074°01'0 0.0
2017-Nov-08 23:00N 40°40' W 074°01'0 0.0
2017-Nov-08 22:30N 40°40' W 074°01'0 0.0
2017-Nov-08 22:00N 40°40' W 074°01'0 0.0
2017-Nov-08 21:30N 40°40' W 074°01'0 0.0
2017-Nov-08 21:00N 40°40' W 074°01'0 0.0
2017-Nov-08 20:30N 40°40' W 074°01'0 0.0
2017-Nov-08 20:00N 40°40' W 074°01'0 0.0
2017-Nov-08 19:31N 40°40' W 074°01'0 0.8
2017-Nov-08 19:00N 40°40' W 074°01'4 7.1
2017-Nov-08 18:30N 40°43' W 073°58'4 8.2
2017-Nov-08 18:00N 40°47' W 073°56'3 6.0
2017-Nov-08 17:30N 40°48' W 073°52'3 4.8
2017-Nov-08 16:58N 40°48' W 073°49'4 9.1
2017-Nov-08 16:30N 40°48' W 073°54'510.7
2017-Nov-08 16:00N 40°44' W 073°58'4 8.5
2017-Nov-08 15:30N 40°40' W 074°01'0 0.3
2017-Nov-08 15:00N 40°40' W 074°01'0 0.0
2017-Nov-08 14:30N 40°40' W 074°01'0 0.0
2017-Nov-08 14:00N 40°40' W 074°01'0 0.0
2017-Nov-08 13:30N 40°40' W 074°01'0 0.0
2017-Nov-08 13:00N 40°40' W 074°01'0 0.0
2017-Nov-08 12:30N 40°40' W 074°01'0 0.0
2017-Nov-08 12:00N 40°40' W 074°01'0 0.0
2017-Nov-08 11:30N 40°40' W 074°01'0 0.0
2017-Nov-08 11:00N 40°40' W 074°01'0 0.0
2017-Nov-08 10:30N 40°40' W 074°01'0 0.0
2017-Nov-08 10:00N 40°40' W 074°01'0 0.0
2017-Nov-08 09:30N 40°40' W 074°01'0 0.0
2017-Nov-08 09:00N 40°40' W 074°01'0 0.0
2017-Nov-08 08:30N 40°40' W 074°01'0 0.0
2017-Nov-08 08:00N 40°40' W 074°01'0 0.0
2017-Nov-08 07:30N 40°40' W 074°01'0 0.0
2017-Nov-08 07:00N 40°40' W 074°01'0 0.0
2017-Nov-08 06:30N 40°40' W 074°01'0 0.0
2017-Nov-08 06:00N 40°40' W 074°01'0 0.0
2017-Nov-08 05:30N 40°40' W 074°01'0 0.0
2017-Nov-08 05:00N 40°40' W 074°01'0 0.0
2017-Nov-08 04:30N 40°40' W 074°01'0 0.0
2017-Nov-08 04:00N 40°40' W 074°01'0 0.0
2017-Nov-08 03:30N 40°40' W 074°01'0 0.0
2017-Nov-08 03:00N 40°40' W 074°01'0 0.0
2017-Nov-08 02:30N 40°40' W 074°01'0 0.0
2017-Nov-08 02:00N 40°40' W 074°01'0 0.0
2017-Nov-08 01:30N 40°40' W 074°01'0 0.0
2017-Nov-08 01:00N 40°40' W 074°01'0 0.0
2017-Nov-08 00:30N 40°40' W 074°01'0 0.0
2017-Nov-08 00:00N 40°40' W 074°01'0 0.0
2017-Nov-07 23:30N 40°40' W 074°01'0 0.0
2017-Nov-07 23:00N 40°40' W 074°01'0 0.0
2017-Nov-07 22:30N 40°40' W 074°01'0 0.0
2017-Nov-07 22:00N 40°40' W 074°01'0 0.0
2017-Nov-07 21:30N 40°40' W 074°01'0 0.0
2017-Nov-07 21:00N 40°40' W 074°01'0 0.0
2017-Nov-07 20:30N 40°40' W 074°01'0 0.0
2017-Nov-07 20:00N 40°40' W 074°01'0 0.0
2017-Nov-07 19:30N 40°40' W 074°01'0 0.0
2017-Nov-07 19:00N 40°40' W 074°01'1 1.3
2017-Nov-07 18:30N 40°40' W 074°01'4 8.4
2017-Nov-07 18:00N 40°39' W 074°07'3 5.5
2017-Nov-07 17:30N 40°42' W 074°07'4 7.0
2017-Nov-07 17:00N 40°44' W 074°05'0 0.2
2017-Nov-07 16:30N 40°44' W 074°05'3 6.9
2017-Nov-07 16:00N 40°42' W 074°07'3 4.4
2017-Nov-07 15:13N 40°38' W 074°09'0 0.1
2017-Nov-07 14:58N 40°38' W 074°09'0 0.1
2017-Nov-07 14:29N 40°38' W 074°09'0 0.1
2017-Nov-07 14:00N 40°38' W 074°09'1 1.2
2017-Nov-07 13:30N 40°39' W 074°08'4 7.7
2017-Nov-07 13:00N 40°40' W 074°03'2 4.0
2017-Nov-07 12:30N 40°40' W 074°01'0 0.0
2017-Nov-07 12:00N 40°40' W 074°01'0 0.0
2017-Nov-07 11:30N 40°40' W 074°01'0 0.0
2017-Nov-07 11:00N 40°40' W 074°01'0 0.0
2017-Nov-07 10:30N 40°40' W 074°01'0 0.0
2017-Nov-07 10:00N 40°40' W 074°01'0 0.0
2017-Nov-07 09:30N 40°40' W 074°01'0 0.0
2017-Nov-07 09:00N 40°40' W 074°01'0 0.0
2017-Nov-07 08:30N 40°40' W 074°01'0 0.0
2017-Nov-07 08:00N 40°40' W 074°01'0 0.0
2017-Nov-07 07:30N 40°40' W 074°01'0 0.0
2017-Nov-07 07:00N 40°40' W 074°01'0 0.0
2017-Nov-07 06:30N 40°40' W 074°01'0 0.0
2017-Nov-07 06:00N 40°40' W 074°01'0 0.0
2017-Nov-07 05:30N 40°40' W 074°01'0 0.0
2017-Nov-07 05:00N 40°40' W 074°01'0 0.0
2017-Nov-07 04:30N 40°40' W 074°01'0 0.0
2017-Nov-07 04:00N 40°40' W 074°01'0 0.0
2017-Nov-07 03:30N 40°40' W 074°01'0 0.0
2017-Nov-07 03:00N 40°40' W 074°01'0 0.0
2017-Nov-07 02:30N 40°40' W 074°01'0 0.0
2017-Nov-07 02:00N 40°40' W 074°01'0 0.0
2017-Nov-07 01:30N 40°40' W 074°01'0 0.0
2017-Nov-07 01:00N 40°40' W 074°01'0 0.0
2017-Nov-07 00:30N 40°40' W 074°01'0 0.0
2017-Nov-07 00:00N 40°40' W 074°01'0 0.0
2017-Nov-06 23:30N 40°40' W 074°01'0 0.0
2017-Nov-06 23:00N 40°40' W 074°01'0 0.0
2017-Nov-06 22:30N 40°40' W 074°01'0 0.0
2017-Nov-06 22:00N 40°40' W 074°01'0 0.0
2017-Nov-06 21:30N 40°40' W 074°01'0 0.0
2017-Nov-06 21:00N 40°40' W 074°01'0 0.0
2017-Nov-06 20:30N 40°40' W 074°01'  
Track history (hours):
 
Tides and Currents Weather Stations Pressure Air Temp Water Temp Dewpoint Dewpoint Depression Visibility Wind Speed Wind Dir Waves Ship Positions

James William

Owner: Atlas Holdings, LLC, Norfolk, VA. More information available from US FCC via Universal Licensing System and Coast Guard Vessel Documentation Center.

Last reported at 2017-Nov-16 08:09 UTC. Time now 2017-Nov-22 03:47 UTC.
Position N 40°57' W 073°54'.

Length 26 m; draft 3 m.

Type: Tug. MMSI: 367198950.

Date/timePositionNaut miles runAvg speedWind from/ knotsBaromVisibWave heightAir tempDewpointWater temp
2017-Nov-16 08:09N 40°57' W 073°54'2 5.9
2017-Nov-16 07:48N 40°55' W 073°55'2 5.6
2017-Nov-16 07:30N 40°54' W 073°56'3 5.4
2017-Nov-16 07:00N 40°51' W 073°57'2 4.9
2017-Nov-16 06:30N 40°49' W 073°58'2 4.7
2017-Nov-16 06:00N 40°47' W 073°60'2 4.7
2017-Nov-16 05:30N 40°45' W 074°01'3 5.4
2017-Nov-16 05:00N 40°42' W 074°02'2 4.1
2017-Nov-16 04:30N 40°40' W 074°01'1 1.9
2017-Nov-16 04:00N 40°41' W 074°02'2 3.0
2017-Nov-16 03:30N 40°40' W 074°03'0 0.0
2017-Nov-16 03:00N 40°40' W 074°03'4 7.7
2017-Nov-16 02:30N 40°39' W 074°08'2 3.1
2017-Nov-16 01:58N 40°39' W 074°10'1 2.1
2017-Nov-16 01:30N 40°38' W 074°12'0 0.0
2017-Nov-16 01:00N 40°38' W 074°12'0 0.0
2017-Nov-16 00:30N 40°38' W 074°12'0 0.0
2017-Nov-15 23:47N 40°38' W 074°12'0 0.0
2017-Nov-15 23:29N 40°38' W 074°12'0 0.0
2017-Nov-15 22:48N 40°38' W 074°12'0 0.0
2017-Nov-15 22:29N 40°38' W 074°12'0 0.6
2017-Nov-15 22:00N 40°39' W 074°11'2 3.4
2017-Nov-15 21:29N 40°38' W 074°09'0 0.2
2017-Nov-15 21:00N 40°38' W 074°09'0 0.0
2017-Nov-15 20:30N 40°38' W 074°09'0 0.0
2017-Nov-15 20:00N 40°38' W 074°09'0 0.0
2017-Nov-15 19:30N 40°38' W 074°09'0 0.0
2017-Nov-15 19:00N 40°38' W 074°09'0 0.0
2017-Nov-15 18:30N 40°38' W 074°09'2 3.8
2017-Nov-15 18:00N 40°39' W 074°07'4 7.9
2017-Nov-15 17:30N 40°40' W 074°02'1 1.7
2017-Nov-15 17:00N 40°40' W 074°01'0 0.0
2017-Nov-15 16:30N 40°40' W 074°01'0 0.0
2017-Nov-15 16:00N 40°40' W 074°01'0 0.0
2017-Nov-15 15:30N 40°40' W 074°01'0 0.0
2017-Nov-15 15:00N 40°40' W 074°01'0 0.0
2017-Nov-15 14:30N 40°40' W 074°01'0 0.0
2017-Nov-15 14:00N 40°40' W 074°01'0 0.0
2017-Nov-15 13:30N 40°40' W 074°01'0 0.0
2017-Nov-15 13:00N 40°40' W 074°01'0 0.0
2017-Nov-15 12:30N 40°40' W 074°01'0 0.0
2017-Nov-15 12:00N 40°40' W 074°01'0 0.0
2017-Nov-15 11:30N 40°40' W 074°01'0 0.0
2017-Nov-15 11:00N 40°40' W 074°01'0 0.0
2017-Nov-15 10:30N 40°40' W 074°01'0 0.0
2017-Nov-15 10:00N 40°40' W 074°01'0 0.0
2017-Nov-15 09:30N 40°40' W 074°01'0 0.0
2017-Nov-15 09:00N 40°40' W 074°01'0 0.0
2017-Nov-15 08:30N 40°40' W 074°01'0 0.0
2017-Nov-15 08:00N 40°40' W 074°01'0 0.0
2017-Nov-15 07:30N 40°40' W 074°01'0 0.0
2017-Nov-15 07:00N 40°40' W 074°01'0 0.0
2017-Nov-15 06:30N 40°40' W 074°01'0 0.0
2017-Nov-15 06:01N 40°40' W 074°01'0 0.0
2017-Nov-15 05:30N 40°40' W 074°01'0 0.0
2017-Nov-15 05:00N 40°40' W 074°01'0 0.0
2017-Nov-15 04:30N 40°40' W 074°01'0 0.0
2017-Nov-15 04:00N 40°40' W 074°01'0 0.0
2017-Nov-15 03:30N 40°40' W 074°01'0 0.0
2017-Nov-15 03:00N 40°40' W 074°01'0 0.0
2017-Nov-15 02:30N 40°40' W 074°01'0 0.0
2017-Nov-15 02:00N 40°40' W 074°01'0 0.0
2017-Nov-15 01:30N 40°40' W 074°01'0 0.0
2017-Nov-15 01:00N 40°40' W 074°01'0 0.0
2017-Nov-15 00:30N 40°40' W 074°01'0 0.0
2017-Nov-15 00:00N 40°40' W 074°01'0 0.0
2017-Nov-14 23:30N 40°40' W 074°01'0 0.0
2017-Nov-14 23:00N 40°40' W 074°01'0 0.0
2017-Nov-14 22:30N 40°40' W 074°01'0 0.0
2017-Nov-14 22:00N 40°40' W 074°01'0 0.0
2017-Nov-14 21:30N 40°40' W 074°01'0 0.0
2017-Nov-14 21:00N 40°40' W 074°01'0 0.0
2017-Nov-14 20:30N 40°40' W 074°01'2 4.4
2017-Nov-14 20:00N 40°42' W 074°00'3 6.4
2017-Nov-14 19:30N 40°45' W 073°58'3 6.2
2017-Nov-14 19:00N 40°47' W 073°55'4 8.1
2017-Nov-14 18:29N 40°48' W 073°50'4 7.5
2017-Nov-14 18:00N 40°50' W 073°46'1 0.1
2017-Nov-14 01:04N 40°51' W 073°45'1 5.3
2017-Nov-14 00:57N 40°51' W 073°45'3 5.0
2017-Nov-14 00:17N 40°48' W 073°47'1 4.8
2017-Nov-14 00:00N 40°48' W 073°49'3 5.2
2017-Nov-13 23:29N 40°48' W 073°53'2 4.6
2017-Nov-13 23:00N 40°47' W 073°55'3 6.2
2017-Nov-13 22:30N 40°45' W 073°58'3 5.9
2017-Nov-13 22:00N 40°42' W 073°60'11 0.5
2017-Nov-13 01:44N 40°49' W 073°49'0 0.0
2017-Nov-13 01:21N 40°49' W 073°49'0 0.0
2017-Nov-13 00:53N 40°49' W 073°49'0 0.0
2017-Nov-12 23:52N 40°49' W 073°49'0 0.0
2017-Nov-12 23:25N 40°49' W 073°49'0 0.1
2017-Nov-12 22:57N 40°49' W 073°49'0 0.1
2017-Nov-12 22:30N 40°49' W 073°49'0 0.0
2017-Nov-12 22:00N 40°49' W 073°49'0 0.0
2017-Nov-12 21:29N 40°49' W 073°49'0 0.0
2017-Nov-12 20:53N 40°49' W 073°49'0 0.2
2017-Nov-12 20:30N 40°49' W 073°49'1 1.3
2017-Nov-12 20:00N 40°48' W 073°49'3 6.9
2017-Nov-12 19:30N 40°48' W 073°54'4 8.2
2017-Nov-12 19:00N 40°45' W 073°58'3 6.6
2017-Nov-12 18:30N 40°42' W 073°60'3 5.7
2017-Nov-12 18:00N 40°40' W 074°03'1 1.5
2017-Nov-12 17:30N 40°40' W 074°03'0 0.1
2017-Nov-12 17:00N 40°40' W 074°03'2 3.0
2017-Nov-12 16:30N 40°40' W 074°02'1 2.6
2017-Nov-12 16:01N 40°40' W 074°03'0 1.0
2017-Nov-12 15:30N 40°40' W 074°03'0 0.2
2017-Nov-12 15:01N 40°40' W 074°03'2 3.3
2017-Nov-12 14:30N 40°40' W 074°01'0 1.0
2017-Nov-12 14:00N 40°40' W 074°01'0 0.0
2017-Nov-12 13:30N 40°40' W 074°01'0 0.0
2017-Nov-12 13:00N 40°40' W 074°01'0 0.0
2017-Nov-12 12:30N 40°40' W 074°01'0 0.0
2017-Nov-12 12:00N 40°40' W 074°01'0 0.0
2017-Nov-12 11:30N 40°40' W 074°01'0 0.0
2017-Nov-12 11:00N 40°40' W 074°01'0 0.0
2017-Nov-12 10:30N 40°40' W 074°01'0 0.0
2017-Nov-12 10:00N 40°40' W 074°01'0 0.0
2017-Nov-12 09:30N 40°40' W 074°01'0 0.0
2017-Nov-12 09:00N 40°40' W 074°01'0 0.0
2017-Nov-12 08:30N 40°40' W 074°01'0 0.0
2017-Nov-12 08:00N 40°40' W 074°01'0 0.0
2017-Nov-12 07:30N 40°40' W 074°01'0 0.0
2017-Nov-12 07:00N 40°40' W 074°01'0 0.0
2017-Nov-12 06:30N 40°40' W 074°01'0 0.0
2017-Nov-12 06:00N 40°40' W 074°01'0 0.0
2017-Nov-12 05:30N 40°40' W 074°01'0 0.0
2017-Nov-12 05:00N 40°40' W 074°01'0 0.0
2017-Nov-12 04:30N 40°40' W 074°01'0 0.0
2017-Nov-12 04:00N 40°40' W 074°01'0 0.0
2017-Nov-12 03:30N 40°40' W 074°01'0 0.0
2017-Nov-12 03:00N 40°40' W 074°01'0 0.0
2017-Nov-12 02:30N 40°40' W 074°01'0 0.0
2017-Nov-12 02:00N 40°40' W 074°01'0 0.0
2017-Nov-12 01:30N 40°40' W 074°01'0 0.0
2017-Nov-12 01:00N 40°40' W 074°01'0 0.0
2017-Nov-12 00:30N 40°40' W 074°01'0 0.0
2017-Nov-12 00:00N 40°40' W 074°01'0 0.0
2017-Nov-11 23:30N 40°40' W 074°01'0 0.0
2017-Nov-11 23:00N 40°40' W 074°01'0 0.0
2017-Nov-11 22:30N 40°40' W 074°01'0 0.0
2017-Nov-11 22:00N 40°40' W 074°01'0 0.0
2017-Nov-11 21:30N 40°40' W 074°01'0 0.0
2017-Nov-11 21:00N 40°40' W 074°01'0 0.0
2017-Nov-11 20:30N 40°40' W 074°01'0 0.0
2017-Nov-11 20:00N 40°40' W 074°01'0 0.0
2017-Nov-11 19:30N 40°40' W 074°01'0 0.0
2017-Nov-11 19:00N 40°40' W 074°01'0 0.0
2017-Nov-11 18:30N 40°40' W 074°01'0 0.0
2017-Nov-11 18:00N 40°40' W 074°01'0 0.0
2017-Nov-11 17:30N 40°40' W 074°01'0 0.0
2017-Nov-11 17:00N 40°40' W 074°01'0 0.0
2017-Nov-11 16:30N 40°40' W 074°01'0 0.0
2017-Nov-11 16:00N 40°40' W 074°01'0 0.0
2017-Nov-11 15:30N 40°40' W 074°01'0 0.0
2017-Nov-11 15:00N 40°40' W 074°01'0 0.0
2017-Nov-11 14:30N 40°40' W 074°01'1 2.7
2017-Nov-11 14:00N 40°40' W 074°03'4 6.9
2017-Nov-11 13:30N 40°39' W 074°07'4 7.5
2017-Nov-11 13:00N 40°38' W 074°12'0 0.1
2017-Nov-11 12:30N 40°38' W 074°12'0 0.1
2017-Nov-11 12:00N 40°38' W 074°12'0 0.1
2017-Nov-11 11:30N 40°38' W 074°12'0 0.0
2017-Nov-11 11:00N 40°38' W 074°12'0 0.0
2017-Nov-11 10:30N 40°38' W 074°12'0 0.1
2017-Nov-11 10:00N 40°38' W 074°12'0 0.0
2017-Nov-11 09:30N 40°38' W 074°12'0 0.0
2017-Nov-11 09:00N 40°38' W 074°12'0 0.0
2017-Nov-11 08:30N 40°38' W 074°12'0 0.0
2017-Nov-11 08:00N 40°38' W 074°12'0 0.0
2017-Nov-11 07:29N 40°38' W 074°12'0 0.0
2017-Nov-11 07:00N 40°38' W 074°12'0 0.0
2017-Nov-11 06:30N 40°38' W 074°12'0 0.0
2017-Nov-11 06:00N 40°38' W 074°12'0 0.0
2017-Nov-11 05:30N 40°38' W 074°12'0 0.0
2017-Nov-11 05:00N 40°38' W 074°12'0 0.0
2017-Nov-11 04:30N 40°38' W 074°12'0 0.0
2017-Nov-11 04:00N 40°38' W 074°12'0 0.0
2017-Nov-11 03:30N 40°38' W 074°12'0 0.0
2017-Nov-11 03:00N 40°38' W 074°12'0 0.0
2017-Nov-11 02:30N 40°38' W 074°12'0 0.0
2017-Nov-11 02:00N 40°38' W 074°12'0 0.0
2017-Nov-11 01:30N 40°38' W 074°12'0 0.0
2017-Nov-11 01:00N 40°38' W 074°12'0 0.0
2017-Nov-11 00:30N 40°38' W 074°12'0 0.0
2017-Nov-11 00:00N 40°38' W 074°12'0 0.0
2017-Nov-10 23:30N 40°38' W 074°12'0 0.0
2017-Nov-10 23:00N 40°38' W 074°12'0 0.0
2017-Nov-10 22:30N 40°38' W 074°12'0 0.0
2017-Nov-10 22:00N 40°38' W 074°12'0 0.0
2017-Nov-10 21:30N 40°38' W 074°12'0 0.0
2017-Nov-10 21:00N 40°38' W 074°12'0 0.0
2017-Nov-10 20:30N 40°38' W 074°12'0 0.0
2017-Nov-10 20:00N 40°38' W 074°12'0 0.0
2017-Nov-10 19:30N 40°38' W 074°12'0 0.0
2017-Nov-10 18:59N 40°38' W 074°12'0 0.0
2017-Nov-10 18:30N 40°38' W 074°12'0 0.0
2017-Nov-10 17:59N 40°38' W 074°12'0 0.0
2017-Nov-10 17:30N 40°38' W 074°12'0 0.0
2017-Nov-10 16:59N 40°38' W 074°12'0 0.7
2017-Nov-10 16:30N 40°38' W 074°12'3 5.6
2017-Nov-10 16:00N 40°39' W 074°08'4 7.2
2017-Nov-10 15:30N 40°39' W 074°03'2 5.0
2017-Nov-10 15:01N 40°40' W 074°00'1 1.1
2017-Nov-10 14:30N 40°40' W 074°01'0 0.0
2017-Nov-10 14:00N 40°40' W 074°01'0 0.0
2017-Nov-10 13:30N 40°40' W 074°01'0 0.0
2017-Nov-10 13:00N 40°40' W 074°01'0 0.0
2017-Nov-10 12:30N 40°40' W 074°01'0 0.0
2017-Nov-10 12:00N 40°40' W 074°01'0 0.0
2017-Nov-10 11:30N 40°40' W 074°01'0 0.0
2017-Nov-10 11:00N 40°40' W 074°01'0 0.0
2017-Nov-10 10:30N 40°40' W 074°01'0 0.0
2017-Nov-10 10:00N 40°40' W 074°01'0 0.0
2017-Nov-10 09:30N 40°40' W 074°01'0 0.0
2017-Nov-10 09:00N 40°40' W 074°01'0 0.0
2017-Nov-10 08:30N 40°40' W 074°01'0 0.0
2017-Nov-10 08:00N 40°40' W 074°01'0 0.0
2017-Nov-10 07:30N 40°40' W 074°01'0 0.0
2017-Nov-10 07:00N 40°40' W 074°01'0 0.0
2017-Nov-10 06:30N 40°40' W 074°01'0 0.0
2017-Nov-10 06:00N 40°40' W 074°01'0 0.0
2017-Nov-10 05:30N 40°40' W 074°01'1 2.5
2017-Nov-10 05:00N 40°41' W 074°01'1 1.1
2017-Nov-10 04:31N 40°42' W 074°00'3 5.8
2017-Nov-10 04:00N 40°40' W 074°03'0 0.2
2017-Nov-10 03:31N 40°40' W 074°03'2 3.0
2017-Nov-10 03:00N 40°41' W 074°02'1 1.2
2017-Nov-10 02:30N 40°41' W 074°01'1 2.1
2017-Nov-10 02:00N 40°40' W 074°01'0 0.0
2017-Nov-10 01:30N 40°40' W 074°01'0 0.0
2017-Nov-10 01:00N 40°40' W 074°01'0 0.0
2017-Nov-10 00:30N 40°40' W 074°01'0 0.0
2017-Nov-10 00:00N 40°40' W 074°01'0 0.9
2017-Nov-09 23:30N 40°40' W 074°01'0 0.9
2017-Nov-09 23:00N 40°40' W 074°01'0 0.0
2017-Nov-09 22:30N 40°40' W 074°01'0 0.0
2017-Nov-09 22:00N 40°40' W 074°01'0 0.0
2017-Nov-09 21:30N 40°40' W 074°01'0 0.0
2017-Nov-09 21:00N 40°40' W 074°01'0 0.0
2017-Nov-09 20:30N 40°40' W 074°01'0 0.0
2017-Nov-09 20:00N 40°40' W 074°01'0 0.0
2017-Nov-09 19:30N 40°40' W 074°01'0 0.0
2017-Nov-09 19:00N 40°40' W 074°01'0 0.0
2017-Nov-09 18:30N 40°40' W 074°01'0 0.0
2017-Nov-09 18:00N 40°40' W 074°01'0 0.0
2017-Nov-09 17:30N 40°40' W 074°01'0 0.0
2017-Nov-09 17:00N 40°40' W 074°01'0 0.0
2017-Nov-09 16:30N 40°40' W 074°01'0 0.0
2017-Nov-09 16:00N 40°40' W 074°01'0 0.0
2017-Nov-09 15:30N 40°40' W 074°01'0 0.0
2017-Nov-09 15:00N 40°40' W 074°01'0 0.0
2017-Nov-09 14:30N 40°40' W 074°01'0 0.0
2017-Nov-09 14:00N 40°40' W 074°01'0 0.0
2017-Nov-09 13:30N 40°40' W 074°01'0 0.0
2017-Nov-09 13:00N 40°40' W 074°01'0 0.0
2017-Nov-09 12:30N 40°40' W 074°01'0 0.0
2017-Nov-09 12:00N 40°40' W 074°01'0 0.0
2017-Nov-09 11:30N 40°40' W 074°01'0 0.0
2017-Nov-09 11:00N 40°40' W 074°01'0 0.0
2017-Nov-09 10:30N 40°40' W 074°01'0 0.0
2017-Nov-09 10:00N 40°40' W 074°01'0 0.0
2017-Nov-09 09:30N 40°40' W 074°01'0 0.0
2017-Nov-09 09:00N 40°40' W 074°01'0 0.0
2017-Nov-09 08:30N 40°40' W 074°01'0 0.0
2017-Nov-09 08:00N 40°40' W 074°01'0 0.0
2017-Nov-09 07:30N 40°40' W 074°01'0 0.0
2017-Nov-09 07:00N 40°40' W 074°01'0 0.0
2017-Nov-09 06:30N 40°40' W 074°01'0 0.0
2017-Nov-09 06:00N 40°40' W 074°01'0 0.0
2017-Nov-09 05:30N 40°40' W 074°01'0 0.0
2017-Nov-09 05:00N 40°40' W 074°01'0 0.0
2017-Nov-09 04:30N 40°40' W 074°01'0 0.0
2017-Nov-09 04:00N 40°40' W 074°01'0 0.0
2017-Nov-09 03:30N 40°40' W 074°01'0 0.0
2017-Nov-09 03:00N 40°40' W 074°01'0 0.0
2017-Nov-09 02:30N 40°40' W 074°01'0 0.0
2017-Nov-09 02:00N 40°40' W 074°01'0 0.0
2017-Nov-09 01:30N 40°40' W 074°01'0 0.0
2017-Nov-09 01:00N 40°40' W 074°01'0 0.0
2017-Nov-09 00:30N 40°40' W 074°01'0 0.0
2017-Nov-09 00:00N 40°40' W 074°01'0 0.0
2017-Nov-08 23:30N 40°40' W 074°01'0 0.0
2017-Nov-08 23:00N 40°40' W 074°01'0 0.0
2017-Nov-08 22:30N 40°40' W 074°01'0 0.0
2017-Nov-08 22:00N 40°40' W 074°01'0 0.0
2017-Nov-08 21:30N 40°40' W 074°01'0 0.0
2017-Nov-08 21:00N 40°40' W 074°01'0 0.0
2017-Nov-08 20:30N 40°40' W 074°01'0 0.0
2017-Nov-08 20:00N 40°40' W 074°01'0 0.0
2017-Nov-08 19:31N 40°40' W 074°01'0 0.8
2017-Nov-08 19:00N 40°40' W 074°01'4 7.1
2017-Nov-08 18:30N 40°43' W 073°58'4 8.2
2017-Nov-08 18:00N 40°47' W 073°56'3 6.0
2017-Nov-08 17:30N 40°48' W 073°52'3 4.8
2017-Nov-08 16:58N 40°48' W 073°49'4 9.1
2017-Nov-08 16:30N 40°48' W 073°54'510.7
2017-Nov-08 16:00N 40°44' W 073°58'4 8.5
2017-Nov-08 15:30N 40°40' W 074°01'0 0.3
2017-Nov-08 15:00N 40°40' W 074°01'0 0.0
2017-Nov-08 14:30N 40°40' W 074°01'0 0.0
2017-Nov-08 14:00N 40°40' W 074°01'0 0.0
2017-Nov-08 13:30N 40°40' W 074°01'0 0.0
2017-Nov-08 13:00N 40°40' W 074°01'0 0.0
2017-Nov-08 12:30N 40°40' W 074°01'0 0.0
2017-Nov-08 12:00N 40°40' W 074°01'0 0.0
2017-Nov-08 11:30N 40°40' W 074°01'0 0.0
2017-Nov-08 11:00N 40°40' W 074°01'0 0.0
2017-Nov-08 10:30N 40°40' W 074°01'0 0.0
2017-Nov-08 10:00N 40°40' W 074°01'0 0.0
2017-Nov-08 09:30N 40°40' W 074°01'0 0.0
2017-Nov-08 09:00N 40°40' W 074°01'0 0.0
2017-Nov-08 08:30N 40°40' W 074°01'0 0.0
2017-Nov-08 08:00N 40°40' W 074°01'0 0.0
2017-Nov-08 07:30N 40°40' W 074°01'0 0.0
2017-Nov-08 07:00N 40°40' W 074°01'0 0.0
2017-Nov-08 06:30N 40°40' W 074°01'0 0.0
2017-Nov-08 06:00N 40°40' W 074°01'0 0.0
2017-Nov-08 05:30N 40°40' W 074°01'0 0.0
2017-Nov-08 05:00N 40°40' W 074°01'0 0.0
2017-Nov-08 04:30N 40°40' W 074°01'0 0.0
2017-Nov-08 04:00N 40°40' W 074°01'0 0.0
2017-Nov-08 03:30N 40°40' W 074°01'0 0.0
2017-Nov-08 03:00N 40°40' W 074°01'0 0.0
2017-Nov-08 02:30N 40°40' W 074°01'0 0.0
2017-Nov-08 02:00N 40°40' W 074°01'0 0.0
2017-Nov-08 01:30N 40°40' W 074°01'0 0.0
2017-Nov-08 01:00N 40°40' W 074°01'0 0.0
2017-Nov-08 00:30N 40°40' W 074°01'0 0.0
2017-Nov-08 00:00N 40°40' W 074°01'0 0.0
2017-Nov-07 23:30N 40°40' W 074°01'0 0.0
2017-Nov-07 23:00N 40°40' W 074°01'0 0.0
2017-Nov-07 22:30N 40°40' W 074°01'0 0.0
2017-Nov-07 22:00N 40°40' W 074°01'0 0.0
2017-Nov-07 21:30N 40°40' W 074°01'0 0.0
2017-Nov-07 21:00N 40°40' W 074°01'0 0.0
2017-Nov-07 20:30N 40°40' W 074°01'0 0.0
2017-Nov-07 20:00N 40°40' W 074°01'0 0.0
2017-Nov-07 19:30N 40°40' W 074°01'0 0.0
2017-Nov-07 19:00N 40°40' W 074°01'1 1.3
2017-Nov-07 18:30N 40°40' W 074°01'4 8.4
2017-Nov-07 18:00N 40°39' W 074°07'3 5.5
2017-Nov-07 17:30N 40°42' W 074°07'4 7.0
2017-Nov-07 17:00N 40°44' W 074°05'0 0.2
2017-Nov-07 16:30N 40°44' W 074°05'3 6.9
2017-Nov-07 16:00N 40°42' W 074°07'3 4.4
2017-Nov-07 15:13N 40°38' W 074°09'0 0.1
2017-Nov-07 14:58N 40°38' W 074°09'0 0.1
2017-Nov-07 14:29N 40°38' W 074°09'0 0.1
2017-Nov-07 14:00N 40°38' W 074°09'1 1.2
2017-Nov-07 13:30N 40°39' W 074°08'4 7.7
2017-Nov-07 13:00N 40°40' W 074°03'2 4.0
2017-Nov-07 12:30N 40°40' W 074°01'0 0.0
2017-Nov-07 12:00N 40°40' W 074°01'0 0.0
2017-Nov-07 11:30N 40°40' W 074°01'0 0.0
2017-Nov-07 11:00N 40°40' W 074°01'0 0.0
2017-Nov-07 10:30N 40°40' W 074°01'0 0.0
2017-Nov-07 10:00N 40°40' W 074°01'0 0.0
2017-Nov-07 09:30N 40°40' W 074°01'0 0.0
2017-Nov-07 09:00N 40°40' W 074°01'0 0.0
2017-Nov-07 08:30N 40°40' W 074°01'0 0.0
2017-Nov-07 08:00N 40°40' W 074°01'0 0.0
2017-Nov-07 07:30N 40°40' W 074°01'0 0.0
2017-Nov-07 07:00N 40°40' W 074°01'0 0.0
2017-Nov-07 06:30N 40°40' W 074°01'0 0.0
2017-Nov-07 06:00N 40°40' W 074°01'0 0.0
2017-Nov-07 05:30N 40°40' W 074°01'0 0.0
2017-Nov-07 05:00N 40°40' W 074°01'0 0.0
2017-Nov-07 04:30N 40°40' W 074°01'0 0.0
2017-Nov-07 04:00N 40°40' W 074°01'0 0.0
2017-Nov-07 03:30N 40°40' W 074°01'0 0.0
2017-Nov-07 03:00N 40°40' W 074°01'0 0.0
2017-Nov-07 02:30N 40°40' W 074°01'0 0.0
2017-Nov-07 02:00N 40°40' W 074°01'0 0.0
2017-Nov-07 01:30N 40°40' W 074°01'0 0.0
2017-Nov-07 01:00N 40°40' W 074°01'0 0.0
2017-Nov-07 00:30N 40°40' W 074°01'0 0.0
2017-Nov-07 00:00N 40°40' W 074°01'0 0.0
2017-Nov-06 23:30N 40°40' W 074°01'0 0.0
2017-Nov-06 23:00N 40°40' W 074°01'0 0.0
2017-Nov-06 22:30N 40°40' W 074°01'0 0.0
2017-Nov-06 22:00N 40°40' W 074°01'0 0.0
2017-Nov-06 21:30N 40°40' W 074°01'0 0.0
2017-Nov-06 21:00N 40°40' W 074°01'0 0.0
2017-Nov-06 20:30N 40°40' W 074°01'  

Dump ship's entire track history